CheckWX is a tool to help pilots better visualize weather data.  It is not intended as a substitute for an official pre-flight weather briefing.

15:12:27 UTC

RJGG TAF
Chubu Centrair International Airport
Tokoname, Japan
TAF RJGG 231109Z 2312/2418 32018KT 9999 FEW030 BECMG 2314/2316 30008KT BECMG 2400/2403 31020KT BECMG 2412/2415 34008KT

Mar-23@
12:00 UTC

Mar-23 @ 12:00 UTC

Mar-23@
14:00 UTC

Mar-23 @ 14:00 UTC

TAF RJGG 231109Z 2312/2418 32018KT 9999 FEW030

Expired

Wind
  • 320° at 18 KTS
Cloud Levels
  • Few at 3,000' AGL

Mar-23@
14:00 UTC

Mar-23 @ 14:00 UTC

Mar-24@
00:00 UTC

Mar-24 @ 00:00 UTC

BECMG 2314/2316 30008KT

Becoming

Becoming Conditions expected by Sat, Mar 23, 2019 @ 16:00 UTC

Wind
  • 300° at 8 KTS
Cloud Levels
  • Few at 3,000' AGL

Mar-24@
00:00 UTC

Mar-24 @ 00:00 UTC

Mar-24@
12:00 UTC

Mar-24 @ 12:00 UTC

BECMG 2400/2403 31020KT

Becoming

Becoming Conditions expected by Sun, Mar 24, 2019 @ 03:00 UTC

Wind
  • 310° at 20 KTS
Cloud Levels
  • Few at 3,000' AGL

Mar-24@
12:00 UTC

Mar-24 @ 12:00 UTC

Mar-24@
18:00 UTC

Mar-24 @ 18:00 UTC

BECMG 2412/2415 34008KT

Becoming

Becoming Conditions expected by Sun, Mar 24, 2019 @ 15:00 UTC

Wind
  • 340° at 8 KTS
Cloud Levels
  • Few at 3,000' AGL